ADDS METAR Data INFO
IDs: Format: Raw Decoded Include TAF

Data at: 0644 UTC 23 Feb 2018

KJWN 230635Z AUTO 05003KT M1/4SM FG OVC002 14/14 A3025 RMK A01
KJWN 230615Z AUTO 05003KT M1/4SM FG OVC002 14/14 A3026 RMK A01
KJWN 230555Z AUTO 07003KT M1/4SM FG OVC002 14/14 A3026 RMK A01
KJWN 230535Z AUTO 06004KT 1/2SM FG OVC003 14/14 A3026 RMK A01
KJWN 230515Z AUTO 05004KT 3SM BR OVC003 14/14 A3027 RMK A01
KJWN 230455Z AUTO 06003KT 3SM BR OVC003 14/14 A3028 RMK A01
KJWN 230435Z AUTO 00000KT 3SM BR OVC003 14/14 A3028 RMK A01
KJWN 230415Z AUTO 00000KT 3/4SM BR OVC002 14/14 A3029 RMK A01
KJWN 230355Z AUTO 00000KT 1/4SM FG OVC002 14/14 A3030 RMK A01
KJWN 230335Z AUTO 00000KT M1/4SM FG OVC002 14/14 A3030 RMK A01
KJWN 230315Z AUTO 00000KT 1/4SM FG OVC002 14/14 A3031 RMK A01
KJWN 230255Z AUTO 00000KT 1/4SM FG OVC002 14/14 A3031 RMK A01
KJWN 230235Z AUTO 07003KT 1/2SM BR OVC003 14/14 A3031 RMK A01
KJWN 230215Z AUTO 00000KT 1/2SM FG OVC002 14/14 A3031 RMK A01
KJWN 230155Z AUTO 00000KT 4SM BR BKN005 OVC034 14/14 A3032 RMK A01
KJWN 230135Z AUTO 00000KT 6SM BR OVC004 14/14 A3031 RMK A01
KJWN 230115Z AUTO 00000KT 9SM OVC004 15/14 A3031 RMK A01
KJWN 230055Z AUTO 00000KT 10SM OVC004 15/14 A3031 RMK A01
KJWN 230035Z AUTO 00000KT 10SM OVC005 15/14 A3030 RMK A01
KJWN 230015Z AUTO 00000KT 10SM OVC005 14/14 A3029 RMK A01
KJWN 222355Z AUTO 00000KT 10SM SCT007 14/14 A3029 RMK A01
KJWN 222335Z AUTO 00000KT 10SM FEW011 14/14 A3029 RMK A01
KJWN 222315Z AUTO 00000KT 10SM FEW005 SCT011 SCT021 14/14 A3030 RMK A01
KJWN 222255Z AUTO 00000KT 10SM SCT005 BKN011 OVC021 15/14 A3030 RMK A01
KJWN 222235Z AUTO 00000KT 10SM OVC011 15/14 A3030 RMK A01
KJWN 222215Z AUTO 00000KT 10SM OVC010 14/13 A3030 RMK A01
KJWN 222155Z AUTO 00000KT 10SM SCT005 BKN009 OVC055 14/13 A3029 RMK A01
KJWN 222135Z AUTO 29004KT 10SM FEW004 BKN008 OVC110 14/13 A3031 RMK A01
KJWN 222115Z AUTO 09005KT 10SM FEW007 SCT020 BKN042 14/13 A3026 RMK A01
KJWN 222055Z AUTO 00000KT 10SM BKN008 BKN018 BKN047 14/13 A3029 RMK A01
KJWN 222035Z AUTO 00000KT 10SM FEW004 OVC008 14/13 A3030 RMK A01
KJWN 222015Z AUTO 00000KT 2 1/2SM BR FEW004 OVC009 14/13 A3031 RMK A01
KJWN 221955Z AUTO 21004KT 9SM OVC010 14/13 A3032 RMK A01
KJWN 221935Z AUTO 00000KT 10SM FEW006 OVC011 14/13 A3032 RMK A01
KJWN 221915Z AUTO 00000KT 10SM FEW006 OVC011 14/13 A3032 RMK A01
KJWN 221855Z AUTO 00000KT 10SM FEW005 OVC011 13/13 A3032 RMK A01 P0002
KJWN 221835Z AUTO 00000KT 10SM OVC010 13/12 A3033 RMK A01
KJWN 221815Z AUTO 33004KT 9SM SCT005 OVC010 13/12 A3034 RMK A01
KJWN 221755Z AUTO 30006KT 4SM BR SCT005 BKN009 BKN032 13/12 A3036 RMK A01 P0013
KJWN 221735Z AUTO 13004KT 3SM BR FEW003 SCT013 BKN032 13/12 A3036 RMK A01
KJWN 221715Z AUTO 00000KT 3SM BR SCT009 BKN019 OVC034 13/12 A3037 RMK A01
KJWN 221655Z AUTO 28004KT 9SM OVC009 13/12 A3038 RMK A01
KJWN 221635Z AUTO 00000KT 10SM SCT006 OVC009 13/12 A3036 RMK A01
KJWN 221615Z AUTO VRB03KT 4SM BR BKN006 OVC009 12/12 A3036 RMK A01
KJWN 221555Z AUTO 23005KT 2SM BR OVC006 13/12 A3036 RMK A01
KJWN 221535Z AUTO 00000KT 5SM BR OVC005 12/12 A3035 RMK A01
KJWN 221515Z AUTO 29004KT 10SM OVC005 13/12 A3034 RMK A01
KJWN 221455Z AUTO 00000KT 10SM OVC005 12/12 A3033 RMK A01
KJWN 221435Z AUTO 00000KT 10SM OVC007 13/12 A3033 RMK A01
KJWN 221415Z AUTO 31008KT 10SM OVC009 13/12 A3032 RMK A01
KJWN 221355Z AUTO 29008KT 10SM OVC009 13/12 A3030 RMK A01
KJWN 221335Z AUTO 29006KT 10SM SCT008 OVC013 13/12 A3029 RMK A01
KJWN 221315Z AUTO 29005KT 10SM BKN013 12/12 A3026 RMK A01
KJWN 221255Z AUTO 02008KT 10SM SCT009 BKN013 BKN046 11/11 A3022 RMK A01 P0002
KJWN 221235Z AUTO 07008KT 8SM SCT008 BKN011 OVC060 12/11 A3019 RMK A01
KJWN 221215Z AUTO 04004KT 8SM BKN012 BKN050 OVC075 11/10 A3023 RMK A01
KJWN 221155Z AUTO 00000KT 10SM SCT013 BKN060 OVC100 11/10 A3026 RMK A01 P0004
KJWN 221135Z AUTO 10005KT 7SM FEW004 SCT016 BKN025 10/10 A3026 RMK A01
KJWN 221115Z AUTO 16003KT 7SM BKN024 BKN034 OVC050 10/10 A3029 RMK A01
KJWN 221055Z AUTO 15003KT 10SM SCT006 BKN047 OVC110 10/10 A3028 RMK A01
KJWN 221035Z AUTO 00000KT 10SM BKN007 BKN075 OVC110 10/09 A3027 RMK A01
KJWN 221015Z AUTO 17004KT 10SM SCT007 SCT028 OVC120 10/10 A3026 RMK A01
KJWN 220955Z AUTO 00000KT 10SM FEW007 SCT035 BKN065 10/09 A3025 RMK A01 P0014
KJWN 220935Z AUTO 00000KT 9SM FEW005 SCT032 BKN043 10/10 A3025 RMK A01
KJWN 220915Z AUTO 30006G12KT 2 1/2SM BR BKN004 OVC045 10/10 A3025 RMK A01
KJWN 220855Z AUTO 32008KT 10SM OVC003 10/10 A3022 RMK A01
KJWN 220835Z AUTO 29009KT 10SM BKN004 BKN010 OVC024 10/10 A3023 RMK A01
KJWN 220815Z AUTO 00000KT 10SM OVC004 10/10 A3022 RMK A01
KJWN 220755Z AUTO 00000KT 10SM OVC004 10/10 A3023 RMK A01
KJWN 220735Z AUTO VRB03KT 10SM BKN006 OVC010 10/09 A3023 RMK A01
KJWN 220715Z AUTO 06004KT 10SM OVC006 10/09 A3023 RMK A01
KJWN 220655Z AUTO 00000KT 10SM OVC005 10/09 A3024 RMK A01
KJWN 220635Z AUTO 00000KT 10SM OVC005 09/09 A3024 RMK A01
KJWN 220615Z AUTO 00000KT 10SM OVC005 09/09 A3025 RMK A01
KJWN 220555Z AUTO 00000G15KT 8SM BKN005 BKN021 OVC032 09/09 A3027 RMK A01 P0021
KJWN 220535Z AUTO VRB04KT 3SM BR FEW005 SCT022 BKN029 09/09 A3024 RMK A01
KJWN 220515Z AUTO 00000KT 3SM BR SCT006 BKN023 OVC032 09/08 A3027 RMK A01
KJWN 220455Z AUTO 30005KT 2 1/2SM BR SCT003 BKN007 OVC030 09/08 A3029 RMK A01 P0024
KJWN 220435Z AUTO 00000KT 10SM FEW003 BKN009 OVC031 09/08 A3029 RMK A01
KJWN 220415Z AUTO VRB03KT 3SM BR SCT003 BKN008 OVC012 09/08 A3029 RMK A01
KJWN 220355Z AUTO 06003KT 4SM BR FEW004 SCT007 OVC012 09/08 A3029 RMK A01 P0015
KJWN 220035Z AUTO 34008KT 10SM OVC008 09/08 A3036 RMK A01
KJWN 220015Z AUTO 33007KT 10SM BKN009 OVC016 09/08 A3036 RMK A01
KJWN 212355Z AUTO 35008KT 10SM BKN010 OVC015 10/08 A3034 RMK A01
KJWN 212335Z AUTO 34008KT 10SM BKN009 OVC012 10/08 A3034 RMK A01
KJWN 212315Z AUTO 35007KT 10SM OVC009 10/09 A3033 RMK A01
KJWN 212255Z AUTO 34008KT 10SM OVC009 10/09 A3033 RMK A01 P0002
KJWN 212235Z AUTO 34010KT 10SM BKN008 OVC012 11/10 A3033 RMK A01
KJWN 212215Z AUTO 32008G15KT 4SM BR BKN009 BKN012 OVC045 12/11 A3032 RMK A01
KJWN 212155Z AUTO 35013KT 7SM SCT009 BKN013 OVC028 13/11 A3030 RMK A01
KJWN 212135Z AUTO 36006KT 10SM FEW013 OVC029 14/12 A3030 RMK A01
KJWN 212115Z AUTO 36006KT 10SM BKN031 OVC043 14/12 A3029 RMK A01
KJWN 212055Z AUTO 03006KT 10SM FEW032 SCT037 BKN045 14/12 A3030 RMK A01
KJWN 212035Z AUTO 01006KT 10SM BKN041 OVC060 14/13 A3030 RMK A01
KJWN 212015Z AUTO 03005KT 10SM OVC042 13/12 A3030 RMK A01
KJWN 211955Z AUTO 35007KT 6SM BR FEW027 FEW032 OVC045 13/12 A3031 RMK A01 P0003
KJWN 211935Z AUTO 36006KT 3SM BR SCT010 BKN029 OVC060 12/11 A3032 RMK A01
KJWN 211915Z AUTO 36005KT 3SM BR FEW008 SCT027 BKN037 12/11 A3032 RMK A01
KJWN 211855Z AUTO 33004KT 2SM BR FEW010 BKN027 BKN035 12/11 A3033 RMK A01 P0005